createdAt,value
2023-05-07T00:01:46.352Z,19.90
2023-05-07T00:04:14.493Z,19.92
2023-05-07T00:06:41.626Z,19.92
2023-05-07T00:09:08.632Z,19.90
2023-05-07T00:11:37.288Z,19.90
2023-05-07T00:14:04.240Z,19.89
2023-05-07T00:16:31.281Z,19.89
2023-05-07T00:18:58.095Z,19.90
2023-05-07T00:21:27.693Z,19.88
2023-05-07T00:23:55.313Z,19.89
2023-05-07T00:26:23.549Z,19.87
2023-05-07T00:28:51.870Z,19.87
2023-05-07T00:31:18.931Z,19.87
2023-05-07T00:33:45.833Z,19.87
2023-05-07T00:36:12.734Z,19.87
2023-05-07T00:38:39.743Z,19.87
2023-05-07T00:41:06.630Z,19.88
2023-05-07T00:43:33.622Z,19.86
2023-05-07T00:46:00.512Z,19.86
2023-05-07T00:48:28.253Z,19.85
2023-05-07T00:50:55.383Z,19.86
2023-05-07T00:53:22.560Z,19.86
2023-05-07T00:55:49.490Z,19.85
2023-05-07T00:58:16.421Z,19.85
2023-05-07T01:00:43.634Z,19.86
2023-05-07T01:03:10.611Z,19.85
2023-05-07T01:05:38.007Z,19.85
2023-05-07T01:08:06.201Z,19.85
2023-05-07T01:10:33.214Z,19.86
2023-05-07T01:13:01.226Z,19.85
2023-05-07T01:15:28.681Z,19.83
2023-05-07T01:17:57.265Z,19.84
2023-05-07T01:20:31.555Z,19.82
2023-05-07T01:22:59.030Z,19.84
2023-05-07T01:25:26.866Z,19.83
2023-05-07T01:27:57.631Z,19.84
2023-05-07T01:30:30.699Z,19.83
2023-05-07T01:33:02.637Z,19.86
2023-05-07T01:35:35.373Z,19.85
2023-05-07T01:38:05.564Z,19.83
2023-05-07T01:40:32.796Z,19.83
2023-05-07T01:42:59.756Z,19.85
2023-05-07T01:45:26.948Z,19.85
2023-05-07T01:47:54.535Z,19.86
2023-05-07T01:50:22.266Z,19.85
2023-05-07T01:52:51.917Z,19.85
2023-05-07T01:55:19.300Z,19.82
2023-05-07T01:57:46.065Z,19.83
2023-05-07T02:00:13.845Z,19.82
2023-05-07T02:02:44.906Z,19.82
2023-05-07T02:05:23.026Z,19.89
2023-05-07T02:07:57.501Z,19.87
2023-05-07T02:10:25.504Z,19.86
2023-05-07T02:12:52.536Z,19.82
2023-05-07T02:15:19.286Z,19.82
2023-05-07T02:18:05.318Z,19.80
2023-05-07T02:20:32.438Z,19.78
2023-05-07T02:22:59.336Z,19.77
2023-05-07T02:25:28.292Z,19.76
2023-05-07T02:27:55.060Z,19.72
2023-05-07T02:30:26.752Z,19.76
2023-05-07T02:32:57.019Z,19.73
2023-05-07T02:35:25.777Z,19.72
2023-05-07T02:37:53.105Z,19.71
2023-05-07T02:40:20.531Z,19.71
2023-05-07T02:42:47.442Z,19.70
2023-05-07T02:45:15.445Z,19.69
2023-05-07T02:47:43.066Z,19.69
2023-05-07T02:50:10.304Z,19.68
2023-05-07T02:52:37.310Z,19.69
2023-05-07T02:55:05.619Z,19.67
2023-05-07T02:57:32.574Z,19.66
2023-05-07T02:59:59.797Z,19.67
2023-05-07T03:02:29.067Z,19.66
2023-05-07T03:04:55.715Z,19.65
2023-05-07T03:07:22.372Z,19.64
2023-05-07T03:09:49.275Z,19.65
2023-05-07T03:12:16.732Z,19.64
2023-05-07T03:14:43.659Z,19.65
2023-05-07T03:17:10.318Z,19.63
2023-05-07T03:19:37.301Z,19.62
2023-05-07T03:22:04.136Z,19.62
2023-05-07T03:24:30.972Z,19.63
2023-05-07T03:26:58.688Z,19.63
2023-05-07T03:29:26.239Z,19.61
2023-05-07T03:31:53.016Z,19.61
2023-05-07T03:34:23.071Z,19.60
2023-05-07T03:36:50.562Z,19.61
2023-05-07T03:39:18.839Z,19.60
2023-05-07T03:41:45.811Z,19.60
2023-05-07T03:44:12.708Z,19.59
2023-05-07T03:46:40.224Z,19.57
2023-05-07T03:49:09.752Z,19.58
2023-05-07T03:51:37.129Z,19.60
2023-05-07T03:54:05.805Z,19.57
2023-05-07T03:56:33.638Z,19.56
2023-05-07T03:59:01.573Z,19.57
2023-05-07T04:01:28.298Z,19.57
2023-05-07T04:03:56.910Z,19.56
2023-05-07T04:06:25.287Z,19.56
2023-05-07T04:08:52.118Z,19.55
2023-05-07T04:11:18.865Z,19.54
2023-05-07T04:13:45.680Z,19.54
2023-05-07T04:16:12.550Z,19.54
2023-05-07T04:18:39.926Z,19.54
2023-05-07T04:21:07.093Z,19.54
2023-05-07T04:23:36.915Z,19.54
2023-05-07T04:26:08.171Z,19.54
2023-05-07T04:28:40.579Z,19.53
2023-05-07T04:31:08.141Z,19.52
2023-05-07T04:33:36.990Z,19.53
2023-05-07T04:36:05.974Z,19.52
2023-05-07T04:38:38.483Z,19.53
2023-05-07T04:41:07.547Z,19.52
2023-05-07T04:43:38.897Z,19.52
2023-05-07T04:46:06.105Z,19.51
2023-05-07T04:48:32.909Z,19.52
2023-05-07T04:51:01.136Z,19.50
2023-05-07T04:53:28.485Z,19.52
2023-05-07T04:55:59.439Z,19.50
2023-05-07T04:58:32.970Z,19.50
2023-05-07T05:01:01.463Z,19.49
2023-05-07T05:03:29.118Z,19.50
2023-05-07T05:05:56.157Z,19.49
2023-05-07T05:08:24.315Z,19.48
2023-05-07T05:10:51.233Z,19.48
2023-05-07T05:13:18.902Z,19.49
2023-05-07T05:15:46.738Z,19.48
2023-05-07T05:18:13.716Z,19.49
2023-05-07T05:20:40.842Z,19.50
2023-05-07T05:23:09.071Z,19.48
2023-05-07T05:25:36.496Z,19.49
2023-05-07T05:28:03.846Z,19.48
2023-05-07T05:30:33.194Z,19.48
2023-05-07T05:32:59.923Z,19.48
2023-05-07T05:35:28.032Z,19.47
2023-05-07T05:37:55.395Z,19.48
2023-05-07T05:40:23.105Z,19.49
2023-05-07T05:42:50.675Z,19.49
2023-05-07T05:45:18.800Z,19.47
2023-05-07T05:47:46.473Z,19.47
2023-05-07T05:50:13.887Z,19.47
2023-05-07T05:52:41.839Z,19.48
2023-05-07T05:55:10.082Z,19.48
2023-05-07T05:57:38.203Z,19.48
2023-05-07T06:00:05.631Z,19.48
2023-05-07T06:02:34.247Z,19.48
2023-05-07T06:05:01.650Z,19.48
2023-05-07T06:07:28.430Z,19.48
2023-05-07T06:09:56.453Z,19.49
2023-05-07T06:12:23.603Z,19.49
2023-05-07T06:14:50.455Z,19.50
2023-05-07T06:17:20.132Z,19.49
2023-05-07T06:19:50.427Z,19.49
2023-05-07T06:22:19.644Z,19.50
2023-05-07T06:24:47.177Z,19.48
2023-05-07T06:27:13.921Z,19.48
2023-05-07T06:29:41.043Z,19.48
2023-05-07T06:32:14.604Z,19.49
2023-05-07T06:34:43.798Z,19.49
2023-05-07T06:37:11.193Z,19.49
2023-05-07T06:39:49.084Z,19.52
2023-05-07T06:42:17.169Z,19.52
2023-05-07T06:44:47.925Z,19.52
2023-05-07T06:47:17.044Z,19.53
2023-05-07T06:49:46.859Z,19.53
2023-05-07T06:52:17.234Z,19.52
2023-05-07T06:54:44.659Z,19.53
2023-05-07T06:57:15.010Z,19.53
2023-05-07T06:59:41.762Z,19.53
2023-05-07T07:02:09.643Z,19.55
2023-05-07T07:04:36.898Z,19.54
2023-05-07T07:07:07.311Z,19.56
2023-05-07T07:09:34.468Z,19.57
2023-05-07T07:12:02.640Z,19.55
2023-05-07T07:14:30.812Z,19.56
2023-05-07T07:16:57.831Z,19.56
2023-05-07T07:19:25.441Z,19.58
2023-05-07T07:21:55.024Z,19.56
2023-05-07T07:24:22.586Z,19.59
2023-05-07T07:26:53.417Z,19.59
2023-05-07T07:29:21.729Z,19.60
2023-05-07T07:31:51.055Z,19.61
2023-05-07T07:34:19.502Z,19.59
2023-05-07T07:36:47.101Z,19.61
2023-05-07T07:39:17.570Z,19.62
2023-05-07T07:41:45.702Z,19.62
2023-05-07T07:44:16.009Z,19.60
2023-05-07T07:46:43.115Z,19.61
2023-05-07T07:49:10.006Z,19.60
2023-05-07T07:51:37.370Z,19.61
2023-05-07T07:54:04.610Z,19.62
2023-05-07T07:56:37.469Z,19.62
2023-05-07T07:59:05.951Z,19.63
2023-05-07T08:01:33.994Z,19.64
2023-05-07T08:04:01.709Z,19.64
2023-05-07T08:06:30.853Z,19.63
2023-05-07T08:08:57.674Z,19.64
2023-05-07T08:11:24.576Z,19.65
2023-05-07T08:13:52.968Z,19.65
2023-05-07T08:16:20.652Z,19.65
2023-05-07T08:18:48.858Z,19.66
2023-05-07T08:21:15.972Z,19.68
2023-05-07T08:23:43.199Z,19.67
2023-05-07T08:26:10.313Z,19.67
2023-05-07T08:28:37.756Z,19.70
2023-05-07T08:31:04.531Z,19.71
2023-05-07T08:33:35.780Z,19.74
2023-05-07T08:36:02.631Z,19.74
2023-05-07T08:38:30.366Z,19.72
2023-05-07T08:40:57.693Z,19.77
2023-05-07T08:43:28.674Z,19.74
2023-05-07T08:46:00.686Z,19.78
2023-05-07T08:48:32.225Z,19.80
2023-05-07T08:51:06.906Z,19.79
2023-05-07T08:53:34.342Z,19.80
2023-05-07T08:56:01.626Z,19.80
2023-05-07T08:58:29.866Z,19.82
2023-05-07T09:00:57.162Z,19.83
2023-05-07T09:03:25.151Z,19.84
2023-05-07T09:05:55.219Z,19.84
2023-05-07T09:08:27.216Z,19.87
2023-05-07T09:10:55.887Z,19.85
2023-05-07T09:13:23.908Z,19.87
2023-05-07T09:15:51.416Z,19.88
2023-05-07T09:18:19.197Z,19.86
2023-05-07T09:20:48.367Z,19.87
2023-05-07T09:23:17.818Z,19.87
2023-05-07T09:25:44.851Z,19.89
2023-05-07T09:28:24.453Z,19.88
2023-05-07T09:30:51.180Z,19.90
2023-05-07T09:33:18.219Z,19.89
2023-05-07T09:35:52.998Z,19.89
2023-05-07T09:38:22.251Z,19.89
2023-05-07T09:41:04.465Z,19.91
2023-05-07T09:43:37.967Z,19.91
2023-05-07T09:46:15.432Z,19.92
2023-05-07T09:48:49.383Z,19.92
2023-05-07T09:51:24.879Z,19.92
2023-05-07T09:53:53.537Z,19.94
2023-05-07T09:56:22.310Z,19.95
2023-05-07T09:58:52.560Z,19.97
2023-05-07T10:01:23.149Z,19.97
2023-05-07T10:03:52.301Z,19.96
2023-05-07T10:06:21.591Z,19.95
2023-05-07T10:08:50.315Z,19.97
2023-05-07T10:11:17.577Z,19.98
2023-05-07T10:13:47.356Z,20.00
2023-05-07T10:16:15.440Z,19.98
2023-05-07T10:18:48.092Z,19.99
2023-05-07T10:21:21.056Z,20.00
2023-05-07T10:24:04.792Z,19.99
2023-05-07T10:26:35.017Z,20.00
2023-05-07T10:29:06.661Z,20.00
2023-05-07T10:31:50.407Z,20.01
2023-05-07T10:34:24.251Z,20.01
2023-05-07T10:36:53.417Z,20.00
2023-05-07T10:39:22.645Z,20.01
2023-05-07T10:41:50.453Z,20.02
2023-05-07T10:44:29.191Z,20.02
2023-05-07T10:47:12.340Z,20.01
2023-05-07T10:49:44.082Z,20.01
2023-05-07T10:52:24.369Z,20.04
2023-05-07T10:55:22.561Z,20.03
2023-05-07T11:02:04.475Z,20.01
2023-05-07T11:04:43.654Z,20.02
2023-05-07T11:07:27.713Z,20.02
2023-05-07T11:10:02.265Z,20.03
2023-05-07T11:12:39.166Z,20.04
2023-05-07T11:15:13.612Z,20.05
2023-05-07T11:17:57.700Z,20.04
2023-05-07T11:20:45.689Z,20.04
2023-05-07T11:23:36.704Z,20.04
2023-05-07T11:26:14.016Z,20.05
2023-05-07T11:28:43.089Z,20.06
2023-05-07T11:31:11.160Z,20.08
2023-05-07T11:33:39.674Z,20.06
2023-05-07T11:36:09.921Z,20.07
2023-05-07T11:38:42.659Z,20.06
2023-05-07T11:41:09.585Z,20.09
2023-05-07T11:43:37.079Z,20.07
2023-05-07T11:46:10.202Z,20.09
2023-05-07T11:48:37.492Z,20.10
2023-05-07T11:51:13.189Z,20.08
2023-05-07T11:53:42.284Z,20.07
2023-05-07T11:56:09.742Z,20.06
2023-05-07T11:58:37.281Z,20.11
2023-05-07T12:01:04.600Z,20.09
2023-05-07T12:03:32.339Z,20.09
2023-05-07T12:06:03.327Z,20.09
2023-05-07T12:08:30.557Z,20.11
2023-05-07T12:10:57.441Z,20.11
2023-05-07T12:13:27.495Z,20.10
2023-05-07T12:15:56.245Z,20.11
2023-05-07T12:18:24.133Z,20.12
2023-05-07T12:20:51.797Z,20.12
2023-05-07T12:23:19.345Z,20.14
2023-05-07T12:25:49.015Z,20.13
2023-05-07T12:28:17.234Z,20.14
2023-05-07T12:30:49.486Z,20.11
2023-05-07T12:33:24.354Z,20.13
2023-05-07T12:35:51.342Z,20.13
2023-05-07T12:38:19.336Z,20.12
2023-05-07T12:40:54.214Z,20.14
2023-05-07T12:43:28.873Z,20.13
2023-05-07T12:45:57.597Z,20.13
2023-05-07T12:48:25.148Z,20.12
2023-05-07T12:50:53.711Z,20.13
2023-05-07T12:53:23.255Z,20.13
2023-05-07T12:55:51.955Z,20.16
2023-05-07T12:58:29.740Z,20.14
2023-05-07T13:01:00.814Z,20.14
2023-05-07T13:03:38.330Z,20.12
2023-05-07T13:06:16.160Z,20.17
2023-05-07T13:08:46.155Z,20.17
2023-05-07T13:11:14.120Z,20.18
2023-05-07T13:13:42.624Z,20.20
2023-05-07T13:16:12.051Z,20.17
2023-05-07T13:18:40.931Z,20.19
2023-05-07T13:21:07.785Z,20.18
2023-05-07T13:23:34.886Z,20.17
2023-05-07T13:26:06.240Z,20.19
2023-05-07T13:28:38.326Z,20.19
2023-05-07T13:31:05.107Z,20.18
2023-05-07T13:33:32.048Z,20.20
2023-05-07T13:35:58.888Z,20.19
2023-05-07T13:38:25.692Z,20.17
2023-05-07T13:40:52.389Z,20.17
2023-05-07T13:43:19.826Z,20.18
2023-05-07T13:45:46.608Z,20.18
2023-05-07T13:48:13.362Z,20.18
2023-05-07T13:50:40.114Z,20.19
2023-05-07T13:53:06.782Z,20.18
2023-05-07T13:55:33.544Z,20.20
2023-05-07T13:58:02.225Z,20.17
2023-05-07T14:00:30.089Z,20.18
2023-05-07T14:02:57.920Z,20.20
2023-05-07T14:05:25.661Z,20.21
2023-05-07T14:07:52.917Z,20.20
2023-05-07T14:10:20.511Z,20.19
2023-05-07T14:12:48.150Z,20.21
2023-05-07T14:15:17.148Z,20.21
2023-05-07T14:17:44.737Z,20.22
2023-05-07T14:20:13.306Z,20.22
2023-05-07T14:22:40.474Z,20.20
2023-05-07T14:25:08.133Z,20.22
2023-05-07T14:27:35.225Z,20.22
2023-05-07T14:30:02.087Z,20.23
2023-05-07T14:32:28.761Z,20.23
2023-05-07T14:34:55.468Z,20.23
2023-05-07T14:37:22.228Z,20.24
2023-05-07T14:39:50.801Z,20.24
2023-05-07T14:42:18.333Z,20.25
2023-05-07T14:44:47.622Z,20.24
2023-05-07T14:47:14.324Z,20.24
2023-05-07T14:49:42.014Z,20.25
2023-05-07T14:52:11.060Z,20.24
2023-05-07T14:54:39.395Z,20.25
2023-05-07T14:57:07.520Z,20.25
2023-05-07T14:59:34.632Z,20.27
2023-05-07T15:02:03.710Z,20.25
2023-05-07T15:04:32.433Z,20.25
2023-05-07T15:06:59.119Z,20.25
2023-05-07T15:09:25.829Z,20.27
2023-05-07T15:11:52.726Z,20.26
2023-05-07T15:14:19.733Z,20.26
2023-05-07T15:16:46.800Z,20.28
2023-05-07T15:19:15.977Z,20.28
2023-05-07T15:21:42.750Z,20.29
2023-05-07T15:24:10.358Z,20.28
2023-05-07T15:26:37.315Z,20.29
2023-05-07T15:29:09.114Z,20.28
2023-05-07T15:31:36.028Z,20.29
2023-05-07T15:34:02.792Z,20.30
2023-05-07T15:36:29.779Z,20.30
2023-05-07T15:38:56.560Z,20.30
2023-05-07T15:41:23.192Z,20.31
2023-05-07T15:43:52.625Z,20.30
2023-05-07T15:46:21.134Z,20.31
2023-05-07T15:48:48.243Z,20.32
2023-05-07T15:51:15.019Z,20.33
2023-05-07T15:53:42.517Z,20.33
2023-05-07T15:56:09.413Z,20.33
2023-05-07T15:58:36.553Z,20.33
2023-05-07T16:01:04.035Z,20.34
2023-05-07T16:03:31.714Z,20.32
2023-05-07T16:06:00.753Z,20.33
2023-05-07T16:08:27.948Z,20.33
2023-05-07T16:10:55.354Z,20.34
2023-05-07T16:13:24.897Z,20.34
2023-05-07T16:15:59.434Z,20.34
2023-05-07T16:18:26.349Z,20.34
2023-05-07T16:20:53.083Z,20.34
2023-05-07T16:23:19.958Z,20.33
2023-05-07T16:25:46.789Z,20.34
2023-05-07T16:28:14.133Z,20.33
2023-05-07T16:30:40.980Z,20.33
2023-05-07T16:33:08.256Z,20.34
2023-05-07T16:35:35.025Z,20.34
2023-05-07T16:38:01.718Z,20.36
2023-05-07T16:40:28.453Z,20.36
2023-05-07T16:42:55.607Z,20.35
2023-05-07T16:45:23.393Z,20.36
2023-05-07T16:47:50.120Z,20.35
2023-05-07T16:50:17.051Z,20.35
2023-05-07T16:52:43.856Z,20.34
2023-05-07T16:55:11.020Z,20.35
2023-05-07T16:57:38.078Z,20.37
2023-05-07T17:00:07.491Z,20.38
2023-05-07T17:02:37.524Z,20.36
2023-05-07T17:05:08.221Z,20.36
2023-05-07T17:07:35.431Z,20.36
2023-05-07T17:10:02.668Z,20.36
2023-05-07T17:12:31.348Z,20.37
2023-05-07T17:14:58.265Z,20.35
2023-05-07T17:17:25.081Z,20.36
2023-05-07T17:19:51.933Z,20.36
2023-05-07T17:22:18.844Z,20.37
2023-05-07T17:24:45.845Z,20.37
2023-05-07T17:27:12.665Z,20.36
2023-05-07T17:29:39.500Z,20.35
2023-05-07T17:32:07.784Z,20.37
2023-05-07T17:34:35.206Z,20.36
2023-05-07T17:37:01.954Z,20.36
2023-05-07T17:39:28.825Z,20.36
2023-05-07T17:41:55.842Z,20.36
2023-05-07T17:44:22.718Z,20.36
2023-05-07T17:46:49.442Z,20.37
2023-05-07T17:49:16.620Z,20.35
2023-05-07T17:51:53.896Z,20.35
2023-05-07T17:54:24.365Z,20.35
2023-05-07T17:56:51.256Z,20.36
2023-05-07T17:59:18.325Z,20.35
2023-05-07T18:01:45.567Z,20.34
2023-05-07T18:04:12.540Z,20.36
2023-05-07T18:06:39.872Z,20.35
2023-05-07T18:09:06.645Z,20.34
2023-05-07T18:11:33.749Z,20.34
2023-05-07T18:14:01.179Z,20.34
2023-05-07T18:16:28.112Z,20.34
2023-05-07T18:18:55.640Z,20.34
2023-05-07T18:21:22.457Z,20.35
2023-05-07T18:23:49.672Z,20.34
2023-05-07T18:26:16.780Z,20.34
2023-05-07T18:28:44.014Z,20.34
2023-05-07T18:31:11.148Z,20.33
2023-05-07T18:33:38.053Z,20.32
2023-05-07T18:36:05.201Z,20.33
2023-05-07T18:38:32.420Z,20.34
2023-05-07T18:41:03.493Z,20.32
2023-05-07T18:43:30.206Z,20.31
2023-05-07T18:45:57.089Z,20.35
2023-05-07T18:48:23.862Z,20.33
2023-05-07T18:50:50.802Z,20.35
2023-05-07T18:53:17.481Z,20.33
2023-05-07T18:55:46.277Z,20.34
2023-05-07T18:58:13.111Z,20.33
2023-05-07T19:00:39.885Z,20.34
2023-05-07T19:03:06.696Z,20.34
2023-05-07T19:05:33.612Z,20.33
2023-05-07T19:08:00.591Z,20.33
2023-05-07T19:10:27.288Z,20.33
2023-05-07T19:12:55.713Z,20.31
2023-05-07T19:15:23.376Z,20.32
2023-05-07T19:17:50.915Z,20.31
2023-05-07T19:20:17.852Z,20.31
2023-05-07T19:22:44.505Z,20.31
2023-05-07T19:25:11.518Z,20.31
2023-05-07T19:27:38.581Z,20.33
2023-05-07T19:30:08.261Z,20.31
2023-05-07T19:32:35.231Z,20.30
2023-05-07T19:35:02.334Z,20.33
2023-05-07T19:37:30.156Z,20.31
2023-05-07T19:39:57.140Z,20.29
2023-05-07T19:42:24.037Z,20.29
2023-05-07T19:44:50.835Z,20.31
2023-05-07T19:47:17.811Z,20.30
2023-05-07T19:49:44.686Z,20.31
2023-05-07T19:52:11.497Z,20.31
2023-05-07T19:54:38.534Z,20.30
2023-05-07T19:57:05.411Z,20.28
2023-05-07T19:59:32.242Z,20.27
2023-05-07T20:01:59.129Z,20.28
2023-05-07T20:04:30.378Z,20.29
2023-05-07T20:06:57.473Z,20.28
2023-05-07T20:09:24.354Z,20.30
2023-05-07T20:11:51.098Z,20.38
2023-05-07T20:14:17.782Z,20.39
2023-05-07T20:16:45.813Z,20.37
2023-05-07T20:19:12.540Z,20.36
2023-05-07T20:21:39.245Z,20.34
2023-05-07T20:24:07.512Z,20.32
2023-05-07T20:26:34.285Z,20.30
2023-05-07T20:29:00.968Z,20.32
2023-05-07T20:31:27.975Z,20.32
2023-05-07T20:33:54.726Z,20.32
2023-05-07T20:36:21.498Z,20.31
2023-05-07T20:38:48.212Z,20.32
2023-05-07T20:41:14.936Z,20.31
2023-05-07T20:43:42.050Z,20.32
2023-05-07T20:46:09.101Z,20.31
2023-05-07T20:48:36.156Z,20.32
2023-05-07T20:51:03.377Z,20.32
2023-05-07T20:53:31.268Z,20.30
2023-05-07T20:55:59.325Z,20.30
2023-05-07T20:58:28.859Z,20.31
2023-05-07T21:00:56.411Z,20.29
2023-05-07T21:03:23.774Z,20.34
2023-05-07T21:05:52.352Z,20.32
2023-05-07T21:08:19.912Z,20.31
2023-05-07T21:10:47.602Z,20.32
2023-05-07T21:13:14.459Z,20.35
2023-05-07T21:15:42.841Z,20.33
2023-05-07T21:18:11.010Z,20.32
2023-05-07T21:20:38.478Z,20.32
2023-05-07T21:23:05.924Z,20.32
2023-05-07T21:25:32.761Z,20.35
2023-05-07T21:27:59.939Z,20.30
2023-05-07T21:30:26.691Z,20.32
2023-05-07T21:32:55.602Z,20.32
2023-05-07T21:35:22.546Z,20.31
2023-05-07T21:37:49.346Z,20.33
2023-05-07T21:40:16.163Z,20.33
2023-05-07T21:42:42.888Z,20.31
2023-05-07T21:45:10.320Z,20.31
2023-05-07T21:47:37.205Z,20.31
2023-05-07T21:50:05.196Z,20.32
2023-05-07T21:52:31.960Z,20.31
2023-05-07T21:54:58.656Z,20.30
2023-05-07T21:57:25.349Z,20.30
2023-05-07T21:59:52.061Z,20.28
2023-05-07T22:02:20.382Z,20.27
2023-05-07T22:04:47.311Z,20.27
2023-05-07T22:07:14.128Z,20.28
2023-05-07T22:09:40.861Z,20.31
2023-05-07T22:12:07.630Z,20.28
2023-05-07T22:14:34.482Z,20.29
2023-05-07T22:17:01.524Z,20.29
2023-05-07T22:19:28.406Z,20.29
2023-05-07T22:21:55.109Z,20.29
2023-05-07T22:24:22.023Z,20.29
2023-05-07T22:26:48.970Z,20.30
2023-05-07T22:29:15.857Z,20.28
2023-05-07T22:31:42.686Z,20.29
2023-05-07T22:34:09.503Z,20.27
2023-05-07T22:36:36.161Z,20.27
2023-05-07T22:39:06.973Z,20.29
2023-05-07T22:41:33.739Z,20.27
2023-05-07T22:44:00.708Z,20.26
2023-05-07T22:46:27.816Z,20.27
2023-05-07T22:48:54.663Z,20.28
2023-05-07T22:51:21.687Z,20.29
2023-05-07T22:53:48.505Z,20.27
2023-05-07T22:56:15.823Z,20.29
2023-05-07T22:58:42.429Z,20.28
2023-05-07T23:01:14.080Z,20.28
2023-05-07T23:03:41.081Z,20.27
2023-05-07T23:06:08.194Z,20.28
2023-05-07T23:08:35.240Z,20.30
2023-05-07T23:11:02.149Z,20.29
2023-05-07T23:13:28.929Z,20.26
2023-05-07T23:15:55.643Z,20.27
2023-05-07T23:18:22.634Z,20.26
2023-05-07T23:20:49.381Z,20.29
2023-05-07T23:23:16.212Z,20.29
2023-05-07T23:25:43.153Z,20.27
2023-05-07T23:28:09.935Z,20.25
2023-05-07T23:30:36.872Z,20.25
2023-05-07T23:33:03.632Z,20.26
2023-05-07T23:35:30.753Z,20.25
2023-05-07T23:37:58.821Z,20.25
2023-05-07T23:40:25.591Z,20.24
2023-05-07T23:42:52.334Z,20.27
2023-05-07T23:45:19.233Z,20.26
2023-05-07T23:47:46.332Z,20.27
2023-05-07T23:50:13.211Z,20.24
2023-05-07T23:52:40.144Z,20.24
2023-05-07T23:55:07.676Z,20.25
2023-05-07T23:57:34.638Z,20.23
